Terminal Aerodrome Forecast
Issued by NWS Mt. Holly, NJ

Home | Current Version | Previous Version | Text Only | Print | Product List | Glossary On
Versions: 1 2 3 4 5 6 7 8 9 10 11 12 13 14 15 16 17 18 19 20 21 22 23 24 25
033
FTUS41 KPHI 232339
TAFPHL
TAF
KPHL 232339Z 2400/2506 20007KT P6SM SCT250
     FM240300 20006KT P6SM BKN090
     FM240800 20004KT 4SM BR SCT060
     FM241000 19004KT 2SM BR SCT004 OVC010
      TEMPO 2410/2413 1/2SM FG OVC004
     FM241300 19005KT 1 1/2SM BR OVC006
     FM241500 20007KT 3SM BR SCT010
     FM241600 20010G18KT P6SM SCT035
     FM250500 18006KT 4SM BR BKN009 BKN050=

USA.gov is the U.S. government's official web portal to all federal, state and local government web resources and services.